createdAt,value
2022-11-16T15:08:22.249Z,16.52
2022-11-16T15:13:30.101Z,11.73
2022-11-16T15:18:36.815Z,15.23
2022-11-16T15:24:23.505Z,8.77
2022-11-16T15:29:21.472Z,13.93
2022-11-16T15:34:30.644Z,13.95
2022-11-16T15:39:39.717Z,12.35
2022-11-16T15:44:46.796Z,13.73
2022-11-16T15:49:54.489Z,14.43
2022-11-16T15:55:06.867Z,13.32
2022-11-16T16:00:24.672Z,13.93
2022-11-16T16:05:38.286Z,11.15
2022-11-16T16:10:51.930Z,13.30
2022-11-16T16:16:23.935Z,15.93
2022-11-16T16:21:32.180Z,10.13
2022-11-16T16:26:37.923Z,15.38
2022-11-16T16:31:44.445Z,14.55
2022-11-16T16:36:50.537Z,19.77
2022-11-16T16:47:04.810Z,15.60
2022-11-16T16:52:17.127Z,14.60
2022-11-16T16:57:24.078Z,17.50
2022-11-16T17:02:31.665Z,14.68
2022-11-16T17:07:37.735Z,18.30
2022-11-16T17:12:47.168Z,15.68
2022-11-16T17:17:53.745Z,17.23
2022-11-16T17:23:31.414Z,18.35
2022-11-16T17:34:45.864Z,15.48
2022-11-16T17:40:03.775Z,19.77
2022-11-16T17:45:11.445Z,20.92
2022-11-16T17:50:25.799Z,23.92
2022-11-16T17:55:32.792Z,22.30
2022-11-16T18:00:39.645Z,21.73
2022-11-16T18:05:46.509Z,17.52
2022-11-16T18:10:52.177Z,25.30
2022-11-16T18:15:58.177Z,23.10
2022-11-16T18:26:12.187Z,20.85
2022-11-16T18:31:20.033Z,23.05
2022-11-16T18:36:31.133Z,23.67
2022-11-16T18:41:37.247Z,23.92
2022-11-16T18:46:44.147Z,22.55
2022-11-16T18:51:49.652Z,17.85
2022-11-16T18:56:57.561Z,21.48
2022-11-16T19:02:03.589Z,21.42
2022-11-16T19:07:09.621Z,19.05
2022-11-16T19:12:15.018Z,18.20
2022-11-16T19:17:22.079Z,19.10
2022-11-16T19:22:27.990Z,22.60
2022-11-16T19:27:34.102Z,22.70
2022-11-16T19:32:39.738Z,20.20
2022-11-16T19:37:47.943Z,21.25
2022-11-16T19:42:55.292Z,20.92
2022-11-16T19:48:00.776Z,23.50
2022-11-16T19:53:06.456Z,23.17
2022-11-16T19:58:12.056Z,22.35
2022-11-16T20:03:17.646Z,24.98
2022-11-16T20:08:26.601Z,22.75
2022-11-16T20:13:32.574Z,23.38
2022-11-16T20:18:38.946Z,25.58
2022-11-16T20:23:47.011Z,24.55
2022-11-16T20:28:54.075Z,25.83
2022-11-16T20:34:03.764Z,21.63
2022-11-16T20:39:09.472Z,26.15
2022-11-16T20:44:16.820Z,27.35
2022-11-16T20:49:23.048Z,24.77
2022-11-16T20:54:29.949Z,26.80
2022-11-16T20:59:35.523Z,25.05
2022-11-16T21:04:41.278Z,25.08
2022-11-16T21:15:12.355Z,20.52
2022-11-16T21:20:27.538Z,21.27
2022-11-16T21:25:33.565Z,20.15
2022-11-16T21:30:39.105Z,19.17
2022-11-16T21:35:44.939Z,19.08
2022-11-16T21:40:50.707Z,16.75
2022-11-16T21:46:03.474Z,18.88
2022-11-16T21:51:10.547Z,17.50
2022-11-16T21:56:19.754Z,18.88
2022-11-16T22:01:26.655Z,16.45
2022-11-16T22:06:50.722Z,15.63
2022-11-16T22:11:59.805Z,19.85
2022-11-16T22:17:09.858Z,15.75
2022-11-16T22:22:15.730Z,17.20
2022-11-16T22:27:21.779Z,15.38
2022-11-16T22:32:27.324Z,14.93
2022-11-16T22:37:33.082Z,13.07
2022-11-16T22:47:43.826Z,14.02
2022-11-16T22:57:55.293Z,13.35
2022-11-16T23:03:01.434Z,13.23
2022-11-16T23:08:07.428Z,12.38
2022-11-16T23:18:36.167Z,13.02
2022-11-16T23:29:08.233Z,15.52
2022-11-16T23:34:14.142Z,18.42
2022-11-16T23:44:24.885Z,16.02
2022-11-16T23:49:31.178Z,16.20
2022-11-16T23:54:36.947Z,18.45
2022-11-16T23:59:42.934Z,17.77
